Terminal Aerodrome Forecast
Issued by NWS

Home | Current Version | Previous Version | Text Only | Print | Product List | Glossary On
Versions: 1 2 3 4 5 6 7 8 9 10 11 12 13 14 15 16 17 18 19 20 21 22 23 24 25 26 27 28 29 30 31 32 33 34 35 36 37 38 39 40 41 42 43
000
FTAK31 PAFA 071821 AAA
TAFAFA
TAF AMD
PAFA 071821Z 0718/0824 25003KT 1SM FU BKN015 BKN025 OVC035
      TEMPO 0718/0721 1/2SM FU SCT005 OVC015
     FM072100 25005KT 1 1/2SM FU VCTS SCT050CB BKN100
     FM080200 26007G16KT 6SM -SHRA FU OVC050
     FM080600 25005KT 6SM FU VCSH BKN050 BKN100=

USA.gov is the U.S. government's official web portal to all federal, state and local government web resources and services.